Time;durP1;ratioP1;P1;durP2;ratioP2;P2;SDS_P1;SDS_P2;PMS_P1;PMS_P2;Temp;Humidity;BMP_temperature;BMP_pressure;BME280_temperature;BME280_humidity;BME280_pressure;Samples;Min_cycle;Max_cycle;Signal;HPM_P1;HPM_P2
2024/04/03 00:00:28;;;;;;;10.55;7.13;;;7.80;99.90;;;;;;4976796;28;20052;-48
2024/04/03 00:02:54;;;;;;;11.55;6.72;;;7.70;99.90;;;;;;4933681;28;20514;-56
2024/04/03 00:05:19;;;;;;;7.70;5.85;;;7.70;99.90;;;;;;4921009;28;20021;-46
2024/04/03 00:07:45;;;;;;;9.40;6.25;;;7.70;99.90;;;;;;4915004;28;21792;-47
2024/04/03 00:10:11;;;;;;;9.18;5.95;;;7.60;99.90;;;;;;4943466;28;20041;-49
2024/04/03 00:12:37;;;;;;;9.93;5.57;;;7.60;99.90;;;;;;4934022;28;20025;-57
2024/04/03 00:15:03;;;;;;;8.68;5.47;;;7.60;99.90;;;;;;4958903;28;20474;-50
2024/04/03 00:17:29;;;;;;;8.57;5.32;;;7.60;99.90;;;;;;4972114;28;20099;-50
2024/04/03 00:19:54;;;;;;;8.60;5.28;;;7.50;99.90;;;;;;4909683;28;20025;-47
2024/04/03 00:22:20;;;;;;;7.00;5.00;;;7.50;99.90;;;;;;4939936;28;20030;-45
2024/04/03 00:24:45;;;;;;;6.82;5.13;;;7.50;99.90;;;;;;4908309;28;20030;-46
2024/04/03 00:27:11;;;;;;;8.60;5.05;;;7.50;99.90;;;;;;4969990;28;20419;-48
2024/04/03 00:29:36;;;;;;;6.55;5.30;;;7.50;99.90;;;;;;4949405;28;20095;-50
2024/04/03 00:32:02;;;;;;;10.40;4.70;;;7.50;99.90;;;;;;4909257;28;20034;-50
2024/04/03 00:34:28;;;;;;;8.45;5.05;;;7.50;99.90;;;;;;4926324;28;20517;-47
2024/04/03 00:36:53;;;;;;;6.75;4.82;;;7.50;99.90;;;;;;4939169;28;21970;-48
2024/04/03 00:39:19;;;;;;;12.05;5.57;;;7.50;99.90;;;;;;4957226;28;20044;-50
2024/04/03 00:41:44;;;;;;;7.18;5.45;;;7.40;99.90;;;;;;4930147;28;20441;-51
2024/04/03 00:44:10;;;;;;;7.93;5.03;;;7.40;99.90;;;;;;4895175;28;20022;-49
2024/04/03 00:46:35;;;;;;;7.72;5.20;;;7.40;99.90;;;;;;4933421;28;20029;-49
2024/04/03 00:49:02;;;;;;;7.68;4.38;;;7.40;99.90;;;;;;4977801;28;20033;-48
2024/04/03 00:51:28;;;;;;;7.97;4.30;;;7.30;99.90;;;;;;4965953;28;20032;-49
2024/04/03 00:53:54;;;;;;;7.63;4.72;;;7.30;99.90;;;;;;4927722;28;20029;-49
2024/04/03 00:56:20;;;;;;;6.75;3.83;;;7.30;99.90;;;;;;4973665;28;20037;-52
2024/04/03 00:58:46;;;;;;;7.47;4.78;;;7.30;99.90;;;;;;4989289;28;20112;-52
2024/04/03 01:01:13;;;;;;;6.38;4.43;;;7.30;99.90;;;;;;4999031;28;20142;-50
2024/04/03 01:03:39;;;;;;;9.68;4.47;;;7.30;99.90;;;;;;4956772;28;20029;-51
2024/04/03 01:06:05;;;;;;;4.88;3.63;;;7.30;99.90;;;;;;4961580;28;20033;-50
2024/04/03 01:08:31;;;;;;;7.95;4.63;;;7.20;99.90;;;;;;4988967;28;20026;-46
2024/04/03 01:10:58;;;;;;;6.90;3.85;;;7.10;99.90;;;;;;4955926;28;20029;-52
2024/04/03 01:13:24;;;;;;;7.47;3.42;;;7.10;99.90;;;;;;4986906;28;20424;-58
2024/04/03 01:16:01;;;;;;;6.25;3.47;;;7.10;99.90;;;;;;4975023;28;20599;-52
2024/04/03 01:18:27;;;;;;;3.42;3.10;;;7.00;99.90;;;;;;4954999;28;20022;-50
2024/04/03 01:20:53;;;;;;;4.18;3.10;;;6.90;99.90;;;;;;4987038;28;20489;-50
2024/04/03 01:23:20;;;;;;;3.53;2.53;;;6.80;99.90;;;;;;4956260;28;20032;-48
2024/04/03 01:25:45;;;;;;;4.32;2.50;;;6.80;99.90;;;;;;4968775;28;20040;-53
2024/04/03 01:28:11;;;;;;;4.35;3.00;;;6.70;99.90;;;;;;4995005;28;20433;-48
2024/04/03 01:30:37;;;;;;;2.97;2.67;;;6.70;99.90;;;;;;4969604;28;20053;-50
2024/04/03 01:33:04;;;;;;;4.60;2.75;;;6.70;99.90;;;;;;4972387;28;20033;-48
2024/04/03 01:35:31;;;;;;;3.38;2.55;;;6.70;99.90;;;;;;4977077;28;20044;-51
2024/04/03 01:37:56;;;;;;;3.00;2.40;;;6.70;99.90;;;;;;4954044;28;20037;-49
2024/04/03 01:40:22;;;;;;;3.10;2.42;;;6.60;99.90;;;;;;4991622;28;20083;-58
2024/04/03 01:42:48;;;;;;;3.10;2.72;;;6.60;99.90;;;;;;4958009;28;20025;-48
2024/04/03 01:45:14;;;;;;;5.13;2.78;;;6.50;99.90;;;;;;4975123;28;20067;-49
2024/04/03 01:47:43;;;;;;;5.45;2.70;;;6.50;99.90;;;;;;4976194;28;20112;-47
2024/04/03 01:50:09;;;;;;;3.97;2.90;;;6.50;99.90;;;;;;4973526;28;20448;-51
2024/04/03 01:52:35;;;;;;;3.38;2.40;;;6.50;99.90;;;;;;4951135;28;20033;-47
2024/04/03 01:55:00;;;;;;;3.80;2.58;;;6.50;99.90;;;;;;4988409;28;20601;-49
2024/04/03 01:57:26;;;;;;;3.75;2.50;;;6.40;99.90;;;;;;4971136;28;20037;-50
2024/04/03 01:59:52;;;;;;;2.58;2.17;;;6.40;99.90;;;;;;4983199;28;20236;-48
2024/04/03 02:02:17;;;;;;;2.58;2.38;;;6.40;99.90;;;;;;4970298;28;20025;-48
2024/04/03 02:04:43;;;;;;;4.90;3.10;;;6.30;99.90;;;;;;4943602;28;21767;-50
2024/04/03 02:07:08;;;;;;;3.17;2.70;;;6.30;99.90;;;;;;4988678;28;20056;-50
2024/04/03 02:09:35;;;;;;;5.00;3.03;;;6.10;99.90;;;;;;4928958;28;20475;-48
2024/04/03 02:12:02;;;;;;;4.05;3.25;;;6.00;99.90;;;;;;4968321;28;20099;-59
2024/04/03 02:14:28;;;;;;;4.22;3.10;;;6.00;99.90;;;;;;4975892;28;20029;-47
2024/04/03 02:16:54;;;;;;;4.18;3.45;;;6.00;99.90;;;;;;4940312;28;20091;-46
2024/04/03 02:19:20;;;;;;;5.68;3.42;;;6.00;99.90;;;;;;4987419;28;20029;-50
2024/04/03 02:21:46;;;;;;;4.45;3.72;;;6.00;99.90;;;;;;4961859;28;20032;-48
2024/04/03 02:24:11;;;;;;;3.60;3.08;;;6.00;99.90;;;;;;4927763;28;20100;-52
2024/04/03 02:26:37;;;;;;;5.10;3.00;;;5.90;99.90;;;;;;4996720;28;20482;-50
2024/04/03 02:29:02;;;;;;;3.47;3.00;;;5.90;99.90;;;;;;4932773;28;20032;-48
2024/04/03 02:31:28;;;;;;;3.83;3.00;;;5.90;99.90;;;;;;4946730;28;20037;-58
2024/04/03 02:33:54;;;;;;;4.15;3.20;;;5.90;99.90;;;;;;4966962;28;20037;-47
2024/04/03 02:36:20;;;;;;;5.15;3.58;;;5.80;99.90;;;;;;4928008;28;21466;-46
2024/04/03 02:38:45;;;;;;;2.65;2.45;;;5.80;99.90;;;;;;4973017;28;20076;-53
2024/04/03 02:41:11;;;;;;;3.17;2.83;;;5.70;99.90;;;;;;4921352;28;20040;-51
2024/04/03 02:43:36;;;;;;;3.47;3.00;;;5.70;99.90;;;;;;4950699;28;20037;-51
2024/04/03 02:46:02;;;;;;;3.45;3.15;;;5.60;99.90;;;;;;4982475;28;20489;-46
2024/04/03 02:48:27;;;;;;;3.38;3.08;;;5.60;99.90;;;;;;4952169;28;20029;-48
2024/04/03 02:51:04;;;;;;;3.38;2.95;;;5.60;99.90;;;;;;4969704;28;20122;-47
2024/04/03 02:53:29;;;;;;;;;;;5.60;99.90;;;;;;4971846;28;20048;-48
2024/04/03 02:55:59;;;;;;;3.60;2.50;;;5.60;99.90;;;;;;4938562;28;19916;-48
2024/04/03 02:58:25;;;;;;;5.30;3.40;;;5.60;99.90;;;;;;4962276;28;20059;-59
2024/04/03 03:01:01;;;;;;;2.58;2.22;;;5.60;99.90;;;;;;4945105;28;20021;-47
2024/04/03 03:03:29;;;;;;;5.00;2.88;;;5.50;99.90;;;;;;4943635;28;20116;-47
2024/04/03 03:05:56;;;;;;;3.13;2.42;;;5.40;99.90;;;;;;4961728;28;20053;-59
2024/04/03 03:08:21;;;;;;;2.20;1.95;;;5.40;99.90;;;;;;4941765;28;20512;-48
2024/04/03 03:10:47;;;;;;;2.65;2.40;;;5.20;99.90;;;;;;4919645;28;20136;-46
2024/04/03 03:13:12;;;;;;;3.10;2.38;;;5.20;99.90;;;;;;4977902;28;20040;-50
2024/04/03 03:15:38;;;;;;;2.72;2.17;;;5.10;99.90;;;;;;4924190;28;20025;-48
2024/04/03 03:18:04;;;;;;;3.00;2.13;;;5.10;99.90;;;;;;4922216;28;20049;-56
2024/04/03 03:20:29;;;;;;;2.60;2.22;;;5.10;99.90;;;;;;4966765;28;20026;-49
2024/04/03 03:22:55;;;;;;;3.15;2.30;;;5.10;99.90;;;;;;4964259;28;20129;-48
2024/04/03 03:25:20;;;;;;;2.65;2.17;;;5.10;99.90;;;;;;4977407;28;20489;-47
2024/04/03 03:27:46;;;;;;;2.13;1.92;;;5.00;99.90;;;;;;4915519;28;20497;-46
2024/04/03 03:30:11;;;;;;;2.22;2.03;;;5.00;99.90;;;;;;4923786;28;20075;-48
2024/04/03 03:32:37;;;;;;;2.17;1.77;;;4.90;99.90;;;;;;4981447;28;20029;-45
2024/04/03 03:35:03;;;;;;;5.10;2.03;;;4.90;99.90;;;;;;4933313;28;20125;-48
2024/04/03 03:37:28;;;;;;;2.38;2.00;;;4.90;99.90;;;;;;4955447;28;20030;-59
2024/04/03 03:39:54;;;;;;;1.95;1.75;;;4.80;99.90;;;;;;4965152;28;20033;-46
2024/04/03 03:42:19;;;;;;;3.03;2.55;;;4.80;99.90;;;;;;4943466;28;21516;-45
2024/04/03 03:44:45;;;;;;;2.47;2.20;;;4.80;99.90;;;;;;4981518;28;20025;-45
2024/04/03 03:47:10;;;;;;;2.55;2.30;;;4.70;99.90;;;;;;4934274;28;20412;-48
2024/04/03 03:52:40;;;;;;;2.90;2.20;;;4.70;99.90;;;;;;4967498;28;20031;-48
2024/04/03 03:55:06;;;;;;;2.67;2.08;;;4.70;99.90;;;;;;4966990;28;20034;-47
2024/04/03 03:57:32;;;;;;;2.63;2.10;;;4.70;99.90;;;;;;4918503;28;20034;-46
2024/04/03 03:59:58;;;;;;;3.33;2.35;;;4.70;99.90;;;;;;4987632;28;20251;-58
2024/04/03 04:02:25;;;;;;;3.13;2.42;;;4.60;99.90;;;;;;4933378;28;20048;-47
2024/04/03 04:04:51;;;;;;;3.25;2.40;;;4.60;99.90;;;;;;4956771;28;21471;-50
2024/04/03 04:07:20;;;;;;;2.90;2.17;;;4.60;99.90;;;;;;4968042;28;20022;-48
2024/04/03 04:09:50;;;;;;;3.85;2.60;;;4.60;99.90;;;;;;4949634;28;20339;-46
2024/04/03 04:12:17;;;;;;;3.25;2.40;;;4.60;99.90;;;;;;4939611;28;21741;-46
2024/04/03 04:14:49;;;;;;;2.88;2.40;;;4.60;99.90;;;;;;4965686;28;20228;-45
2024/04/03 04:17:15;;;;;;;3.40;2.38;;;4.60;99.90;;;;;;4904613;28;20103;-45
2024/04/03 04:19:40;;;;;;;2.85;2.47;;;4.60;99.90;;;;;;4928965;28;20147;-51
2024/04/03 04:22:06;;;;;;;3.42;2.42;;;4.50;99.90;;;;;;4966281;28;20056;-46
2024/04/03 04:24:33;;;;;;;3.72;2.42;;;4.50;99.90;;;;;;4900696;28;20024;-47
2024/04/03 04:27:01;;;;;;;3.30;2.65;;;4.50;99.90;;;;;;4952427;28;20029;-59
2024/04/03 04:29:28;;;;;;;3.35;2.58;;;4.40;99.90;;;;;;4922983;28;20679;-51
2024/04/03 04:31:53;;;;;;;3.35;2.50;;;4.40;99.90;;;;;;4912623;28;21545;-52
2024/04/03 04:34:19;;;;;;;4.40;3.08;;;4.40;99.90;;;;;;4962745;28;20513;-50
2024/04/03 04:36:44;;;;;;;4.30;2.88;;;4.40;99.90;;;;;;4918741;28;20049;-50
2024/04/03 04:39:10;;;;;;;4.43;3.05;;;4.50;99.90;;;;;;4910696;28;20410;-48
2024/04/03 04:41:35;;;;;;;4.60;3.33;;;4.50;99.90;;;;;;4966697;28;20026;-50
2024/04/03 04:44:02;;;;;;;4.38;3.08;;;4.50;99.90;;;;;;4913688;28;20022;-47
2024/04/03 04:46:27;;;;;;;4.43;3.00;;;4.50;99.90;;;;;;4958853;28;20128;-47
2024/04/03 04:48:53;;;;;;;5.43;3.20;;;4.50;99.90;;;;;;4917680;28;20682;-46
2024/04/03 04:51:20;;;;;;;3.72;2.58;;;4.40;99.90;;;;;;4914288;28;20033;-45
2024/04/03 04:53:45;;;;;;;4.18;2.80;;;4.40;99.90;;;;;;4974736;28;20110;-49
2024/04/03 04:56:11;;;;;;;5.25;3.05;;;4.40;99.90;;;;;;4918662;28;20658;-51
2024/04/03 04:58:36;;;;;;;5.10;3.00;;;4.40;99.90;;;;;;4920258;28;20121;-59
2024/04/03 05:01:09;;;;;;;4.63;3.63;;;4.40;99.90;;;;;;4980098;28;20053;-49
2024/04/03 05:03:36;;;;;;;4.53;3.05;;;4.30;99.90;;;;;;4908330;28;20041;-52
2024/04/03 05:06:03;;;;;;;3.83;3.25;;;4.30;99.90;;;;;;4935143;28;20038;-59
2024/04/03 05:08:29;;;;;;;3.38;2.65;;;4.40;99.90;;;;;;4945603;28;20018;-47
2024/04/03 05:10:57;;;;;;;3.28;2.67;;;4.30;99.90;;;;;;4913823;28;23031;-48
2024/04/03 05:13:24;;;;;;;3.58;2.97;;;4.30;99.90;;;;;;4947886;28;20310;-49
2024/04/03 05:15:50;;;;;;;2.40;2.15;;;4.20;99.90;;;;;;4901193;28;20048;-48
2024/04/03 05:18:16;;;;;;;3.85;2.67;;;4.20;99.90;;;;;;4904413;28;21572;-48
2024/04/03 05:20:41;;;;;;;2.47;1.95;;;4.10;99.90;;;;;;4963449;28;20416;-45
2024/04/03 05:25:36;;;;;;;4.03;2.80;;;4.10;99.90;;;;;;4938424;23;20088;-59
2024/04/03 05:28:02;;;;;;;3.20;2.50;;;4.10;99.90;;;;;;4935550;28;20080;-54
2024/04/03 05:30:28;;;;;;;3.55;2.85;;;4.10;99.90;;;;;;4903057;28;21775;-56
2024/04/03 05:32:54;;;;;;;2.75;2.45;;;4.10;99.90;;;;;;4964411;28;20584;-53
2024/04/03 05:35:21;;;;;;;3.22;2.40;;;4.10;99.90;;;;;;4901952;28;20034;-50
2024/04/03 05:37:47;;;;;;;2.92;2.53;;;4.10;99.90;;;;;;4885144;28;20030;-50
2024/04/03 05:40:13;;;;;;;3.83;2.65;;;4.10;99.90;;;;;;4936592;28;20044;-54
2024/04/03 05:42:39;;;;;;;2.53;2.33;;;4.00;99.90;;;;;;4941937;28;20041;-55
2024/04/03 05:45:05;;;;;;;2.72;2.20;;;4.00;99.90;;;;;;4941937;28;20030;-52
2024/04/03 05:47:35;;;;;;;3.05;2.17;;;4.00;99.90;;;;;;4938492;28;20504;-51
2024/04/03 05:50:05;;;;;;;2.40;2.20;;;4.00;99.90;;;;;;4957053;28;20036;-52
2024/04/03 05:52:35;;;;;;;3.47;2.50;;;4.00;99.90;;;;;;4975924;28;20497;-58
2024/04/03 05:55:01;;;;;;;2.60;2.40;;;4.00;99.90;;;;;;4971721;28;20469;-49
2024/04/03 05:57:30;;;;;;;2.33;2.05;;;4.00;99.90;;;;;;4938831;28;20045;-50
2024/04/03 05:59:55;;;;;;;3.13;2.40;;;4.10;99.90;;;;;;4944285;28;20116;-51
2024/04/03 06:02:21;;;;;;;2.72;2.22;;;4.00;99.90;;;;;;4976676;28;20056;-52
2024/04/03 06:04:46;;;;;;;2.65;2.25;;;4.00;99.90;;;;;;4928130;28;20520;-49
2024/04/03 06:07:12;;;;;;;2.50;2.30;;;4.00;99.90;;;;;;4977023;28;20044;-50
2024/04/03 06:09:37;;;;;;;2.83;2.53;;;3.90;99.90;;;;;;4930706;28;20029;-52
2024/04/03 06:12:03;;;;;;;2.30;2.10;;;3.90;99.90;;;;;;4926520;28;20048;-52
2024/04/03 06:14:29;;;;;;;2.63;2.30;;;3.80;99.90;;;;;;4929582;28;20037;-50
2024/04/03 06:16:55;;;;;;;2.28;2.08;;;3.90;99.90;;;;;;4941406;28;22103;-50
2024/04/03 06:19:20;;;;;;;2.70;2.40;;;3.90;99.90;;;;;;4975866;28;20394;-51
2024/04/03 06:21:46;;;;;;;2.72;2.13;;;3.90;99.90;;;;;;4938166;28;20033;-51
2024/04/03 06:24:11;;;;;;;2.70;2.20;;;3.90;99.90;;;;;;4930333;28;20575;-51
2024/04/03 06:26:37;;;;;;;2.08;1.88;;;4.00;99.90;;;;;;4908987;28;20548;-52
2024/04/03 06:29:03;;;;;;;1.85;1.73;;;4.00;99.90;;;;;;4941094;28;20613;-52
2024/04/03 06:31:30;;;;;;;3.08;2.15;;;4.00;99.90;;;;;;4970343;28;20060;-51
2024/04/03 06:33:58;;;;;;;4.07;2.35;;;4.10;99.90;;;;;;4931789;28;20032;-59
2024/04/03 06:36:24;;;;;;;3.78;2.75;;;4.20;99.90;;;;;;4924916;28;20018;-47
2024/04/03 06:38:49;;;;;;;2.60;2.17;;;4.30;99.90;;;;;;4904913;28;20040;-53
2024/04/03 06:41:15;;;;;;;2.10;1.67;;;4.30;99.90;;;;;;4936769;28;20048;-52
2024/04/03 06:43:41;;;;;;;1.88;1.60;;;4.40;99.90;;;;;;4916342;28;20080;-60
2024/04/03 06:46:06;;;;;;;1.92;1.70;;;4.40;99.90;;;;;;4949618;28;20057;-52
2024/04/03 06:48:32;;;;;;;2.35;1.88;;;4.40;99.90;;;;;;4919522;28;20101;-52
2024/04/03 06:50:57;;;;;;;2.17;1.52;;;4.50;99.90;;;;;;4905043;28;20038;-53
2024/04/03 06:53:23;;;;;;;2.13;1.90;;;4.60;99.90;;;;;;4929642;28;20489;-58
2024/04/03 06:55:56;;;;;;;2.30;2.10;;;4.60;99.90;;;;;;4920034;28;21220;-54
2024/04/03 06:58:22;;;;;;;1.27;1.17;;;4.60;99.90;;;;;;4986204;28;20029;-50
2024/04/03 07:00:48;;;;;;;3.90;2.15;;;4.70;99.90;;;;;;4938139;28;20028;-51
2024/04/03 07:03:13;;;;;;;2.80;1.95;;;4.70;99.90;;;;;;4908029;28;20022;-53
2024/04/03 07:05:39;;;;;;;1.60;1.30;;;4.90;99.90;;;;;;4920153;28;20110;-53
2024/04/03 07:08:06;;;;;;;2.58;1.83;;;5.00;99.90;;;;;;4926626;28;20046;-50
2024/04/03 07:10:32;;;;;;;1.75;1.48;;;5.00;99.90;;;;;;4952195;28;20034;-59
2024/04/03 07:13:00;;;;;;;1.70;1.58;;;5.20;99.90;;;;;;4892791;28;20040;-60
2024/04/03 07:15:26;;;;;;;1.80;1.65;;;5.40;99.90;;;;;;4912796;28;20033;-50
2024/04/03 07:17:52;;;;;;;2.40;2.05;;;5.40;99.90;;;;;;4886746;28;20153;-51
2024/04/03 07:20:18;;;;;;;1.50;1.40;;;5.40;99.90;;;;;;4924088;28;20464;-52
2024/04/03 07:22:43;;;;;;;1.58;1.48;;;5.40;99.90;;;;;;4906559;28;20539;-59
2024/04/03 07:25:11;;;;;;;1.58;1.40;;;5.50;99.90;;;;;;4958376;28;20037;-50
2024/04/03 07:27:43;;;;;;;2.25;1.77;;;5.60;99.90;;;;;;4927411;28;20025;-52
2024/04/03 07:30:12;;;;;;;2.17;1.98;;;5.70;99.90;;;;;;4888494;28;20080;-50
2024/04/03 07:32:39;;;;;;;1.90;1.63;;;5.90;99.90;;;;;;4885577;28;20030;-52
2024/04/03 07:35:04;;;;;;;2.63;2.13;;;6.00;99.90;;;;;;4920365;28;20087;-50
2024/04/03 07:37:30;;;;;;;2.60;1.92;;;6.10;99.90;;;;;;4947790;28;20025;-60
2024/04/03 07:39:56;;;;;;;2.00;1.77;;;6.20;99.90;;;;;;4918656;28;20486;-58
2024/04/03 07:42:22;;;;;;;1.88;1.67;;;6.20;99.90;;;;;;4967247;28;20124;-54
2024/04/03 07:44:50;;;;;;;2.28;1.60;;;6.30;99.90;;;;;;4948288;28;22523;-51
2024/04/03 07:47:15;;;;;;;33.15;7.72;;;6.40;99.90;;;;;;4984170;28;20045;-54
2024/04/03 07:49:41;;;;;;;6.70;2.78;;;6.40;99.90;;;;;;4944985;28;20034;-53
2024/04/03 07:52:06;;;;;;;15.35;3.13;;;6.40;99.90;;;;;;4933842;28;20038;-51
2024/04/03 07:54:32;;;;;;;3.38;2.10;;;6.40;99.90;;;;;;4961293;28;20438;-51
2024/04/03 07:56:57;;;;;;;2.05;1.75;;;6.30;99.90;;;;;;4943968;28;21013;-54
2024/04/03 07:59:23;;;;;;;2.33;1.67;;;6.30;99.90;;;;;;4979236;28;20510;-58
2024/04/03 08:01:48;;;;;;;6.60;4.50;;;6.20;99.90;;;;;;4971986;28;20018;-51
2024/04/03 08:04:15;;;;;;;2.30;1.98;;;6.30;99.90;;;;;;4938344;28;20018;-48
2024/04/03 08:06:41;;;;;;;3.22;2.92;;;6.30;99.90;;;;;;4968748;28;20410;-51
2024/04/03 08:09:07;;;;;;;2.05;1.85;;;6.30;99.90;;;;;;4948450;28;20036;-53
2024/04/03 08:11:32;;;;;;;1.83;1.70;;;6.40;99.90;;;;;;4933298;28;20033;-52
2024/04/03 08:13:59;;;;;;;2.30;1.98;;;6.40;99.90;;;;;;4981622;28;20018;-50
2024/04/03 08:16:24;;;;;;;3.03;2.25;;;6.50;99.90;;;;;;4945904;28;20053;-48
2024/04/03 08:18:50;;;;;;;2.20;2.00;;;6.50;99.90;;;;;;4987002;28;20064;-48
2024/04/03 08:21:16;;;;;;;3.35;2.15;;;6.60;99.90;;;;;;4937316;28;20030;-49
2024/04/03 08:23:41;;;;;;;2.08;1.88;;;6.60;99.90;;;;;;4929965;28;20476;-52
2024/04/03 08:26:10;;;;;;;2.28;1.80;;;6.70;99.90;;;;;;4977309;28;20897;-53
2024/04/03 08:28:38;;;;;;;1.58;1.48;;;6.70;99.90;;;;;;4931956;28;20022;-53
2024/04/03 08:31:10;;;;;;;1.63;1.52;;;6.80;99.90;;;;;;4914720;28;20034;-53
2024/04/03 08:33:36;;;;;;;1.80;1.58;;;6.90;99.90;;;;;;4951241;28;20570;-53
2024/04/03 08:36:02;;;;;;;2.10;1.90;;;7.00;99.90;;;;;;4947405;28;20026;-53
2024/04/03 08:38:28;;;;;;;3.42;2.58;;;7.00;99.90;;;;;;4947841;28;20482;-58
2024/04/03 08:40:56;;;;;;;19.63;5.65;;;7.10;99.90;;;;;;4961089;28;20056;-54
2024/04/03 08:43:23;;;;;;;2.13;1.92;;;7.20;99.90;;;;;;4920188;28;20137;-53
2024/04/03 08:45:49;;;;;;;2.13;1.70;;;7.30;99.90;;;;;;4965532;28;20095;-54
2024/04/03 08:48:22;;;;;;;1.90;1.63;;;7.50;99.90;;;;;;4933699;28;20038;-54
2024/04/03 08:50:51;;;;;;;2.00;1.58;;;7.50;99.90;;;;;;4926245;28;21809;-51
2024/04/03 08:53:23;;;;;;;1.88;1.70;;;7.50;99.90;;;;;;4977361;28;20490;-52
2024/04/03 08:55:53;;;;;;;2.25;2.05;;;7.60;99.90;;;;;;4937194;28;20018;-53
2024/04/03 08:58:20;;;;;;;2.33;1.90;;;7.50;99.90;;;;;;4928874;28;20141;-53
2024/04/03 09:00:47;;;;;;;2.85;2.33;;;7.60;99.90;;;;;;4983650;28;20127;-52
2024/04/03 09:03:14;;;;;;;5.07;1.90;;;7.70;99.90;;;;;;4928096;28;20055;-53
2024/04/03 09:05:41;;;;;;;140.85;21.55;;;7.70;99.90;;;;;;4927275;28;20405;-50
2024/04/03 09:08:08;;;;;;;268.60;45.70;;;7.70;99.90;;;;;;4976582;28;20083;-51
2024/04/03 09:10:50;;;;;;;4.18;3.50;;;7.70;99.90;;;;;;4919518;28;20037;-54
2024/04/03 09:13:16;;;;;;;2.42;2.00;;;7.80;99.90;;;;;;4927342;28;21453;-53
2024/04/03 09:15:43;;;;;;;2.88;2.28;;;7.80;99.90;;;;;;4962145;28;20120;-51
2024/04/03 09:18:09;;;;;;;3.15;2.38;;;7.90;99.90;;;;;;4921184;28;20038;-52
2024/04/03 09:20:38;;;;;;;2.95;2.38;;;7.90;99.90;;;;;;4930687;28;20076;-53
2024/04/03 09:23:07;;;;;;;2.60;2.33;;;8.00;99.90;;;;;;4968966;28;20113;-51
2024/04/03 09:25:35;;;;;;;2.33;2.10;;;8.10;99.90;;;;;;4908373;28;20164;-53
2024/04/03 09:28:08;;;;;;;4.30;3.00;;;8.20;99.90;;;;;;4911479;28;20434;-59
2024/04/03 09:30:39;;;;;;;3.58;2.72;;;8.20;99.90;;;;;;4960542;28;20041;-51
2024/04/03 09:33:05;;;;;;;3.38;3.08;;;8.40;99.90;;;;;;4917316;28;20058;-52
2024/04/03 09:35:39;;;;;;;6.15;3.40;;;8.50;99.90;;;;;;4923798;28;20025;-61
2024/04/03 09:38:05;;;;;;;3.15;2.83;;;8.60;99.90;;;;;;4970278;28;20036;-51
2024/04/03 09:40:32;;;;;;;3.22;2.72;;;8.70;99.90;;;;;;4914061;28;20140;-55
2024/04/03 09:43:02;;;;;;;2.83;2.42;;;8.80;99.90;;;;;;4945464;28;20045;-58
2024/04/03 09:45:29;;;;;;;20.33;4.70;;;8.90;99.90;;;;;;4952508;28;20125;-51
2024/04/03 09:48:01;;;;;;;5.40;3.17;;;9.00;99.90;;;;;;4916415;28;20506;-53
2024/04/03 09:50:31;;;;;;;13.07;4.53;;;9.00;99.90;;;;;;4942974;28;20025;-60
2024/04/03 09:52:58;;;;;;;4.68;2.95;;;9.00;99.90;;;;;;4956877;28;20037;-56
2024/04/03 09:55:28;;;;;;;5.07;3.60;;;9.00;99.90;;;;;;4899416;28;20030;-52
2024/04/03 09:58:10;;;;;;;5.00;3.70;;;9.00;99.90;;;;;;4946859;28;20033;-54
2024/04/03 10:00:37;;;;;;;4.15;2.97;;;9.00;99.90;;;;;;4952235;28;20547;-51
2024/04/03 10:03:03;;;;;;;4.43;3.33;;;9.00;99.90;;;;;;4910204;28;20030;-54
2024/04/03 10:05:41;;;;;;;4.40;3.17;;;9.10;99.90;;;;;;4968234;28;20026;-54
2024/04/03 10:08:11;;;;;;;4.32;3.05;;;9.20;99.90;;;;;;4961783;28;20049;-52
2024/04/03 10:10:47;;;;;;;4.35;3.15;;;9.10;99.90;;;;;;4925675;28;20048;-53
2024/04/03 10:13:24;;;;;;;5.13;3.67;;;9.20;99.90;;;;;;4939119;28;20026;-52
2024/04/03 10:16:06;;;;;;;5.03;3.50;;;9.30;99.90;;;;;;4951493;28;20029;-50
2024/04/03 10:18:50;;;;;;;4.30;3.50;;;9.40;99.90;;;;;;4970821;28;20034;-53
2024/04/03 10:21:16;;;;;;;4.90;4.25;;;9.50;99.90;;;;;;4901384;28;20033;-55
2024/04/03 10:23:48;;;;;;;6.32;4.30;;;9.60;99.90;;;;;;4903912;28;20125;-55
2024/04/03 10:26:16;;;;;;;4.60;3.65;;;9.50;99.90;;;;;;4957266;28;20026;-56
2024/04/03 10:28:42;;;;;;;6.72;4.15;;;9.50;99.90;;;;;;4899112;28;20033;-54
2024/04/03 10:31:08;;;;;;;6.55;4.32;;;9.50;99.90;;;;;;4902389;28;20401;-54
2024/04/03 10:33:34;;;;;;;5.70;3.83;;;9.60;99.90;;;;;;4946133;28;20116;-52
2024/04/03 10:36:00;;;;;;;7.03;3.95;;;9.60;99.90;;;;;;4890865;28;20060;-49
2024/04/03 10:38:26;;;;;;;6.90;4.88;;;9.60;99.90;;;;;;4944444;28;20077;-58
2024/04/03 10:40:52;;;;;;;6.28;3.80;;;9.70;99.90;;;;;;4903721;28;20033;-53
2024/04/03 10:43:19;;;;;;;6.15;3.95;;;9.60;99.90;;;;;;4905340;28;21755;-53
2024/04/03 10:45:51;;;;;;;5.00;3.95;;;9.70;99.90;;;;;;4948516;28;21326;-56
2024/04/03 10:48:18;;;;;;;5.15;3.75;;;9.80;99.90;;;;;;4904553;28;20021;-52
2024/04/03 10:50:45;;;;;;;4.43;3.53;;;9.80;99.90;;;;;;4875505;28;21500;-54
2024/04/03 10:53:10;;;;;;;5.18;3.83;;;9.90;99.90;;;;;;4958376;28;20441;-52
2024/04/03 10:55:38;;;;;;;5.47;3.90;;;9.90;99.90;;;;;;4885589;28;20030;-54
2024/04/03 10:58:05;;;;;;;5.07;4.25;;;9.90;99.90;;;;;;4917936;28;20037;-59
2024/04/03 11:00:39;;;;;;;4.90;3.78;;;9.90;99.90;;;;;;4942810;28;20029;-49
2024/04/03 11:03:06;;;;;;;4.65;3.70;;;9.80;99.90;;;;;;4884826;28;20026;-53
2024/04/03 11:05:33;;;;;;;4.10;3.70;;;9.80;99.90;;;;;;4936283;28;20057;-61
2024/04/03 11:07:59;;;;;;;4.75;3.90;;;9.80;99.90;;;;;;4930493;28;20044;-57
2024/04/03 11:10:26;;;;;;;6.97;3.80;;;9.80;99.90;;;;;;4911635;28;20151;-55
2024/04/03 11:13:07;;;;;;;5.40;3.63;;;9.80;99.90;;;;;;4967280;28;20850;-53
2024/04/03 11:15:33;;;;;;;4.45;3.10;;;9.80;99.90;;;;;;4941995;28;20106;-55
2024/04/03 11:18:01;;;;;;;5.50;3.70;;;9.80;99.90;;;;;;4915840;28;20092;-52
2024/04/03 11:20:28;;;;;;;5.10;4.22;;;9.90;99.90;;;;;;4946680;28;20025;-53
2024/04/03 11:22:56;;;;;;;4.80;3.83;;;9.90;99.90;;;;;;4905940;28;20053;-54
2024/04/03 11:25:28;;;;;;;5.20;3.92;;;9.90;99.90;;;;;;4907428;28;21382;-52
2024/04/03 11:27:57;;;;;;;5.22;4.25;;;9.90;99.90;;;;;;4962554;28;20585;-55
2024/04/03 11:30:23;;;;;;;6.07;4.60;;;9.90;99.90;;;;;;4919533;28;20038;-55
2024/04/03 11:32:50;;;;;;;5.10;3.80;;;10.00;99.90;;;;;;4904006;28;20728;-55
2024/04/03 11:35:15;;;;;;;4.93;3.60;;;10.00;99.90;;;;;;4943272;28;20191;-50
2024/04/03 11:37:41;;;;;;;5.18;4.00;;;10.00;99.90;;;;;;4898262;28;20024;-51
2024/04/03 11:40:07;;;;;;;5.05;3.70;;;10.00;99.90;;;;;;4903199;28;20037;-59
2024/04/03 11:42:34;;;;;;;4.35;3.40;;;10.10;99.90;;;;;;4944703;28;20056;-56
2024/04/03 11:45:00;;;;;;;4.78;3.80;;;10.10;99.90;;;;;;4908347;28;20429;-53
2024/04/03 11:47:25;;;;;;;5.30;3.53;;;10.10;99.90;;;;;;4935267;28;20022;-51
2024/04/03 11:49:51;;;;;;;4.32;3.50;;;10.20;99.90;;;;;;4890813;28;20030;-52
2024/04/03 11:52:17;;;;;;;4.95;3.53;;;10.10;99.90;;;;;;4892096;28;21274;-56
2024/04/03 11:54:43;;;;;;;5.53;4.32;;;10.10;99.90;;;;;;4970012;28;21699;-55
2024/04/03 11:57:09;;;;;;;4.28;3.88;;;10.10;99.90;;;;;;4901484;28;21054;-53
2024/04/03 11:59:35;;;;;;;5.18;3.80;;;10.10;99.90;;;;;;4903205;28;20664;-60
2024/04/03 12:02:02;;;;;;;4.43;3.60;;;10.10;99.90;;;;;;4919358;28;20774;-51
2024/04/03 12:04:28;;;;;;;6.57;3.92;;;10.00;99.90;;;;;;4889693;28;20061;-54
2024/04/03 12:06:53;;;;;;;4.97;3.78;;;10.00;99.90;;;;;;4941385;28;20443;-52
2024/04/03 12:09:19;;;;;;;4.85;3.83;;;10.00;99.90;;;;;;4900492;28;20037;-52
2024/04/03 12:11:45;;;;;;;7.03;4.63;;;10.00;99.90;;;;;;4880838;28;20039;-53
2024/04/03 12:14:10;;;;;;;4.57;3.55;;;9.90;99.90;;;;;;4926588;28;20045;-52
2024/04/03 12:16:36;;;;;;;5.45;4.07;;;10.00;99.90;;;;;;4872787;28;20046;-50
2024/04/03 12:21:43;;;;;;;5.90;4.07;;;10.10;99.90;;;;;;4934550;28;20066;-48
2024/04/03 12:24:10;;;;;;;4.97;4.20;;;10.00;99.90;;;;;;4950595;28;20030;-53
2024/04/03 12:26:36;;;;;;;5.85;4.40;;;10.00;99.90;;;;;;4957836;28;20029;-59
2024/04/03 12:29:02;;;;;;;6.10;4.70;;;10.00;99.90;;;;;;4973531;28;20033;-55
2024/04/03 12:31:28;;;;;;;5.35;4.53;;;9.90;99.90;;;;;;4938054;28;20030;-52
2024/04/03 12:33:54;;;;;;;6.25;3.95;;;9.90;99.90;;;;;;4925479;28;20036;-52
2024/04/03 12:36:20;;;;;;;5.85;4.13;;;9.80;99.90;;;;;;4944552;28;20091;-51
2024/04/03 12:38:46;;;;;;;5.32;4.43;;;9.90;99.90;;;;;;4927391;28;20030;-49
2024/04/03 12:41:12;;;;;;;4.68;3.50;;;9.90;99.90;;;;;;4978186;28;20084;-55
2024/04/03 12:43:38;;;;;;;4.85;3.75;;;9.80;99.90;;;;;;4932678;28;20054;-53
2024/04/03 12:46:04;;;;;;;5.85;4.18;;;9.80;99.90;;;;;;4924058;28;20026;-49
2024/04/03 12:48:29;;;;;;;6.00;4.40;;;9.70;99.90;;;;;;4922781;28;20014;-48
2024/04/03 12:50:56;;;;;;;5.30;4.38;;;9.70;99.90;;;;;;4946031;28;21458;-49
2024/04/03 12:53:22;;;;;;;4.63;3.97;;;9.80;99.90;;;;;;4985384;28;20494;-53
2024/04/03 12:55:48;;;;;;;4.38;3.50;;;9.80;99.90;;;;;;4937635;28;20060;-52
2024/04/03 12:58:14;;;;;;;6.47;4.70;;;9.70;99.90;;;;;;4924092;28;20036;-48
2024/04/03 13:00:41;;;;;;;6.30;4.60;;;9.70;99.90;;;;;;4924888;28;20041;-49